Timeline UpdatesTrip UpdatesNews PostsPvt PostsTravel TipsAdmin PostsConv PostsFollowed PostsChat RequestsBlog PostsPNR Posts

Disclaimer
Search
 
 
Sat Aug 23, 2014 11:04:26 ISTHomeTrainsΣChainsAtlasPNRForumGalleryNewsFAQTripsMembersLoginFeedback
No Recent News for this Train
Other Trains in the News **new
Latest...
.
Sat May 19, 2012 (08:56PM)
⇐ Return Journey: Train# 51410

51409/Pune - Shahu Maharaj Terminus Kolhapur Passenger (UnReserved)

Sep 11 2013 (11:10PM)
Change Departure Station:
Change Arrival Station:
Post a Train Travel TipPost a Train Travel Tip **new
Post a Comment/Question/Picture/VideoPost a Comment/Question/Picture/Video
Pantry/Catering
✕ NO Pantry Car
✓ Catering Avbl
RSA - Rake Sharing
Rake/Coach Composition
Loco, SLR, GS, GS, GS, GS, GS, GS, GS, GS, SLR
Loco
PUNE WDM-3A/3D
News    PNR    Forum    Time-Table    Availability    Fare Chart    Map    Arr/Dep History    Trips    Gallery    ΣChains    X/O    Timeline    
Travel Time: 10h 30m    41 halts    Distance: 327 km    Avg Speed: 31 km/hr
Type: Passenger
Zone: CR/Central
Departs @ 09:00 (Avg 11m late)
Platform# 2
SMTWTFS
Pune Junction/PUNE 
Arrives @ 19:30 (Avg on time)
Platform# 2
SMTWTFS
Kolhapur CSMT/KOP 

41 halts. 42 intermediate Stations between Pune Junction and Kolhapur CSMT

Show ALL intermediate Stations  Show Old Time-Table

#CodeStation NameX/OArrivesAvgDepartsAvgHaltPFDay#KmSpeedElevZoneAddress
1PUNE»Pune Junction (6)»  -09:00+11210.020556mCRPune 411001, Maharashtra
2GPRGhorpuri (2)  09:07+3409:08+361m--12.347558mCRPune, Maharashtra
3SSVSasvad Road (1)  09:20+3609:21+371m1111.743587mCRPune 412308, Maharashtra
4FSGPhursungi (1)  09:28+3709:29+371m1116.750582mCRDist Pune 412308, Maharashtra
5ALNAlandi  09:37+3709:38+471m--123.450583mCRRamdara Rd, Maharashtra
6SHIVShindawane (1)  09:48+4709:49+481m1131.844650mCRPune 412202, Maharashtra
7ABLEAmbale  10:02+5010:03+501m--141.340729mCRMalshiras Rd, Maharashtra
8RJWRajevadi  10:10+5010:11+511m--146.061727mCRMalshiras Rd, Maharashtra
9JJRJejuri (1)  10:23+5210:24+551m1158.252697mCRDist. Pune 412303, Maharashtra
10DNJDaundaj (1)  10:33+5710:34+581m1165.951692mCRIndraprastha Rd, Maharashtra
11WLHValha (1)O  10:44+1:0010:45+1:021m1174.423623mCRValha, Maharashtra
12NIRANira (1)  11:12+4611:15+493m1184.751553mCRDist. Pune 412102, Maharashtra
13LNNLonand  11:24+5011:25+521m--192.446594mCRJn Point Daund /Miraj /Pune, Maharashtra
14SLPSalpaX  11:37+5111:38+531m--1101.544667mCRSH 61, Maharashtra
15AKIAdarki (1)  11:49+5311:50+571m11109.622731mCRSatara Dist., Maharashtra
16WTRWatharX  12:18+4212:20+482m--1119.751799mCRSatara, Maharashtra
17PLVPalsiX  12:31+4812:32+511m--1129.120751mCRWathar-Koregaon Rd, Maharashtra
18JSVJarandeshwarX  12:59+3413:00+351m--1138.18678mCRSH 61, Maharashtra
19STRSatara (3)O  14:00+614:25+825m11145.754637mCRSatara, Maharashtra
20KRGKoregaonX  14:37+1614:38+261m--1156.444658mCRKoregaon, Maharashtra
21RMPRahimatpur  14:52+2514:53+291m--1166.760626mCRSatara, Maharashtra
22TAZTargaonX  15:04+2915:05+311m--1177.855617mCRSatara, Maharashtra
23MSRMasur  15:19+3015:20+301m--1190.662610mCRSatara, Maharashtra
24SIWShirravde  15:25+3515:26+391m--1195.718594mCRMasur Rd, Maharashtra
25KRDKarad (3)  15:54+1615:55+171m--1204.488597mCRDist- Satara., Maharashtra
26SNEShenoli  16:04+2916:05+291m--1217.540587mCRShenoli Station, Maharashtra
27BVNRBhavani Nagar  16:17+2616:18+271m--1225.634578mCRTasgaon Rd, Maharashtra
28TKRTakari  16:29+2116:30+211m--1231.824558mCRSangli, Maharashtra
29KOVKirloskarvadi  16:49+1416:50+171m--1239.439570mCRSangli, Maharashtra
30ANQAmnapur  16:57-16:58-1m--1244.092556mCRSangli, Maharashtra
31BVQBhilavdiX  17:04+1917:05+211m--1253.245570mCRSangli, Maharashtra
32NDENandre  17:14+2217:15+241m--1260.0133560mCRSangli, Maharashtra
33MDVRMadhavnagar  17:19-17:20-1m--1268.89550mCRSangli, Maharashtra
34SLISangli (3)  17:42+817:45+103m21272.329559mCRSangli, Maharashtra
35VRBVishrambag  17:49-17:50-1m--1274.2230mCRSangli, Maharashtra
36MRJMiraj Junction (6)X  18:04+418:07+63m31279.659554mCRMiraj 416410, Maharashtra
37JSPJayasingpur  18:19+1918:20+191m--1291.549550mCRJaysingpur, Maharashtra
38NMGTNimshirgaon Tamdalge  18:29-18:30-1m--1298.948593mCRMiraj Rd, Maharashtra
39HTKHatkanagale (2)X  18:39+1518:40+161m--1306.032591mCRDist. Kolhapur 416115, Maharashtra
40RKDRukadi (1)  18:54+1418:55+141m11313.544544mCRKolhapur, Maharashtra
41VVValivade  19:04+219:05+21m--1320.136554mCRValivade, Maharashtra
42GRMTGur Market  19:10+1219:11+121m--1323.111550mCRKolhapur, Maharashtra
43KOP•Kolhapur CSMT (3)•  19:30+0-21326.7-563mCRKolhapur 416001, Maharashtra
Scroll to Top
Scroll to Bottom